Time;durP1;ratioP1;P1;durP2;ratioP2;P2;SDS_P1;SDS_P2;PMS_P1;PMS_P2;Temp;Humidity;BMP_temperature;BMP_pressure;BME280_temperature;BME280_humidity;BME280_pressure;Samples;Min_cycle;Max_cycle;Signal;HPM_P1;HPM_P2
2023/06/25 00:01:23;;;;;;;4.82;2.25;;;;;;;22.35;100.00;100266.63;4989671;28;20159;-75
2023/06/25 00:03:50;;;;;;;5.38;3.20;;;;;;;22.26;100.00;100265.28;4978607;28;20035;-75
2023/06/25 00:06:16;;;;;;;7.57;4.65;;;;;;;22.16;100.00;100252.44;4986870;28;20034;-75
2023/06/25 00:08:42;;;;;;;8.20;3.50;;;;;;;22.04;100.00;100238.75;4988752;28;20049;-77
2023/06/25 00:11:07;;;;;;;5.22;2.22;;;;;;;22.28;100.00;100278.56;4992835;28;20489;-75
2023/06/25 00:13:33;;;;;;;5.85;2.92;;;;;;;21.74;100.00;100201.06;4990772;28;20486;-76
2023/06/25 00:15:58;;;;;;;10.38;3.53;;;;;;;21.75;100.00;100201.94;4987669;28;20034;-76
2023/06/25 00:18:26;;;;;;;8.40;3.20;;;;;;;22.35;100.00;100309.41;4989227;28;20034;-76
2023/06/25 00:20:53;;;;;;;5.63;2.90;;;;;;;22.40;100.00;100317.19;4988840;28;20038;-76
2023/06/25 00:23:19;;;;;;;6.82;3.42;;;;;;;22.10;100.00;100275.88;4989332;28;20035;-76
2023/06/25 00:25:46;;;;;;;12.82;4.43;;;;;;;22.38;100.00;100327.94;4988571;28;20044;-77
2023/06/25 00:28:11;;;;;;;11.40;2.85;;;;;;;22.41;100.00;100329.63;4989358;28;20100;-74
2023/06/25 00:30:37;;;;;;;3.40;1.77;;;;;;;22.31;100.00;100319.41;4989357;28;20023;-75
2023/06/25 00:33:03;;;;;;;2.38;1.63;;;;;;;22.29;100.00;100325.75;4989246;28;20034;-73
2023/06/25 00:35:50;;;;;;;17.25;3.78;;;;;;;21.24;100.00;100177.69;4988967;28;20121;-74
2023/06/25 00:38:18;;;;;;;4.38;2.78;;;;;;;21.82;100.00;100272.81;4988563;28;20092;-75
2023/06/25 00:40:43;;;;;;;10.15;3.28;;;;;;;21.73;100.00;100254.56;4986782;28;20088;-72
2023/06/25 00:43:09;;;;;;;6.18;2.38;;;;;;;22.38;100.00;100367.19;4988316;28;20038;-74
2023/06/25 00:45:35;;;;;;;7.43;2.78;;;;;;;22.31;100.00;100382.66;4989086;28;20037;-74
2023/06/25 00:48:01;;;;;;;4.55;2.50;;;;;;;22.35;100.00;100373.56;4988660;28;20034;-75
2023/06/25 00:50:27;;;;;;;4.32;2.00;;;;;;;22.21;100.00;100371.56;4988675;28;20057;-74
2023/06/25 00:52:54;;;;;;;4.78;2.38;;;;;;;22.21;100.00;100387.59;4988600;28;20514;-74
2023/06/25 00:55:21;;;;;;;12.65;4.00;;;;;;;21.56;100.00;100295.44;4988384;28;20038;-75
2023/06/25 00:57:47;;;;;;;5.10;3.42;;;;;;;21.77;100.00;100358.50;4992359;28;20050;-75
2023/06/25 01:00:14;;;;;;;3.70;1.92;;;;;;;21.61;100.00;100401.09;4988626;28;20053;-75
2023/06/25 01:02:43;;;;;;;7.05;3.33;;;;;;;21.76;100.00;100398.66;4988559;28;20030;-75
2023/06/25 01:05:11;;;;;;;13.25;4.15;;;;;;;21.13;100.00;100303.59;4986995;28;20552;-73
2023/06/25 01:07:44;;;;;;;5.93;3.13;;;;;;;21.66;100.00;100391.06;4988776;28;20046;-75
2023/06/25 01:10:13;;;;;;;5.00;2.58;;;;;;;21.94;100.00;100419.19;4988771;28;20038;-76
2023/06/25 01:12:39;;;;;;;6.28;4.65;;;;;;;21.83;100.00;100384.06;4988169;28;20105;-74
2023/06/25 01:15:06;;;;;;;8.40;3.47;;;;;;;21.36;100.00;100288.34;4989947;28;20034;-75
2023/06/25 01:17:32;;;;;;;4.47;2.30;;;;;;;21.80;100.00;100378.88;5011924;28;20042;-75
2023/06/25 01:19:57;;;;;;;5.32;2.97;;;;;;;21.70;100.00;100398.00;4982669;28;20487;-75
2023/06/25 01:22:32;;;;;;;6.22;3.10;;;;;;;21.24;100.00;100306.66;4988625;28;20150;-76
2023/06/25 01:24:59;;;;;;;10.48;3.40;;;;;;;21.91;100.00;100428.22;4988206;28;20100;-76
2023/06/25 01:27:25;;;;;;;8.60;3.05;;;;;;;21.81;100.00;100434.03;4988599;28;20045;-75
2023/06/25 01:29:51;;;;;;;5.97;3.13;;;;;;;21.66;100.00;100416.91;4988570;28;20038;-76
2023/06/25 01:32:17;;;;;;;4.72;2.22;;;;;;;21.18;100.00;100316.72;4986682;28;20466;-75
2023/06/25 01:34:44;;;;;;;7.72;3.17;;;;;;;21.34;100.00;100381.81;4987769;28;20066;-76
2023/06/25 01:37:09;;;;;;;6.13;2.80;;;;;;;21.08;100.00;100327.81;4987190;28;20035;-75
2023/06/25 01:39:35;;;;;;;5.47;2.95;;;;;;;21.73;100.00;100442.41;4988329;28;20815;-76
2023/06/25 01:42:01;;;;;;;6.22;3.20;;;;;;;21.62;100.00;100428.66;4988342;28;20041;-75
2023/06/25 01:44:31;;;;;;;8.00;3.38;;;;;;;21.10;100.00;100326.91;4988276;28;20431;-75
2023/06/25 01:46:57;;;;;;;13.77;4.05;;;;;;;21.10;100.00;100329.56;4986596;28;20038;-75
2023/06/25 01:49:24;;;;;;;6.50;3.88;;;;;;;21.25;100.00;100366.22;4987980;28;20417;-75
2023/06/25 01:51:51;;;;;;;5.60;2.50;;;;;;;21.08;100.00;100330.50;4988152;28;20521;-75
2023/06/25 01:54:16;;;;;;;5.00;2.63;;;;;;;21.38;100.00;100406.59;4992092;28;20030;-75
2023/06/25 01:56:42;;;;;;;6.53;4.57;;;;;;;21.03;100.00;100332.50;4991184;28;20053;-74
2023/06/25 01:59:08;;;;;;;7.43;4.45;;;;;;;20.97;100.00;100315.91;4991887;28;20034;-75
2023/06/25 02:01:34;;;;;;;8.75;3.72;;;;;;;21.59;100.00;100420.81;4991561;28;20041;-74
2023/06/25 02:03:59;;;;;;;8.25;6.10;;;;;;;21.22;100.00;100406.41;4991930;28;20038;-75
2023/06/25 02:06:25;;;;;;;6.28;3.10;;;;;;;21.18;100.00;100365.63;4991221;28;20042;-74
2023/06/25 02:08:50;;;;;;;34.72;9.73;;;;;;;20.96;100.00;100316.84;4991464;28;20034;-74
2023/06/25 02:11:16;;;;;;;22.42;6.55;;;;;;;20.91;100.00;100309.06;4991550;28;20604;-73
2023/06/25 02:13:42;;;;;;;4.47;2.30;;;;;;;21.57;100.00;100404.00;4991306;28;20052;-74
2023/06/25 02:16:07;;;;;;;8.20;4.13;;;;;;;21.63;100.00;100411.69;4992821;28;20034;-74
2023/06/25 02:18:33;;;;;;;7.90;3.20;;;;;;;21.21;100.00;100352.16;4991369;28;20114;-73
2023/06/25 02:20:58;;;;;;;6.72;3.67;;;;;;;21.32;100.00;100422.88;4991186;28;20039;-76
2023/06/25 02:23:24;;;;;;;9.05;2.70;;;;;;;21.39;100.00;100435.88;4990979;28;20117;-75
2023/06/25 02:25:50;;;;;;;5.90;3.65;;;;;;;21.20;100.00;100352.22;4991141;28;20616;-75
2023/06/25 02:28:16;;;;;;;5.07;2.92;;;;;;;21.02;100.00;100304.06;4992100;28;20108;-75
2023/06/25 02:30:42;;;;;;;5.93;3.25;;;;;;;21.65;100.00;100417.84;4991184;28;20045;-75
2023/06/25 02:33:08;;;;;;;9.55;3.20;;;;;;;21.72;100.00;100424.63;4991141;28;20034;-75
2023/06/25 02:35:33;;;;;;;7.63;4.05;;;;;;;21.75;100.00;100404.94;4991301;28;20042;-76
2023/06/25 02:37:59;;;;;;;3.67;2.17;;;;;;;21.83;100.00;100424.16;4991004;28;20042;-75
2023/06/25 02:40:27;;;;;;;7.53;4.43;;;;;;;21.41;100.00;100355.75;4990203;28;20034;-75
2023/06/25 02:42:53;;;;;;;15.35;3.72;;;;;;;21.71;100.00;100401.53;4991259;28;20065;-75
2023/06/25 02:45:18;;;;;;;5.95;3.05;;;;;;;21.38;100.00;100326.50;4989720;28;20128;-74
2023/06/25 02:47:44;;;;;;;7.85;4.00;;;;;;;21.34;100.00;100309.75;4991255;28;20034;-75
2023/06/25 02:50:10;;;;;;;11.52;3.45;;;;;;;21.71;100.00;100409.56;4990844;28;20058;-74
2023/06/25 02:52:35;;;;;;;5.75;2.42;;;;;;;21.87;100.00;100418.59;4990988;28;20501;-74
2023/06/25 02:55:00;;;;;;;11.48;3.80;;;;;;;21.67;100.00;100427.50;4990264;28;20076;-75
2023/06/25 02:57:29;;;;;;;4.03;2.28;;;;;;;21.07;100.00;100323.44;4990646;28;20506;-74
2023/06/25 03:00:12;;;;;;;7.65;3.53;;;;;;;21.88;100.00;100422.97;4990221;28;20054;-75
2023/06/25 03:02:37;;;;;;;11.82;5.85;;;;;;;21.78;100.00;100397.66;4989180;28;20034;-74
2023/06/25 03:05:03;;;;;;;10.70;3.65;;;;;;;21.80;100.00;100413.63;4989835;28;20057;-75
2023/06/25 03:07:29;;;;;;;3.83;2.65;;;;;;;21.61;100.00;100376.19;4990235;28;20482;-74
2023/06/25 03:09:54;;;;;;;9.35;3.67;;;;;;;21.69;100.00;100364.22;4992603;28;20038;-75
2023/06/25 03:12:20;;;;;;;6.00;3.28;;;;;;;21.37;100.00;100306.94;4994818;28;20034;-73
2023/06/25 03:14:45;;;;;;;6.55;2.88;;;;;;;21.29;100.00;100291.28;4990105;28;20034;-74
2023/06/25 03:17:10;;;;;;;10.55;2.95;;;;;;;21.91;100.00;100400.59;4992037;28;20061;-73
2023/06/25 03:19:36;;;;;;;8.18;2.33;;;;;;;21.91;100.00;100388.13;4990123;28;20045;-76
2023/06/25 03:22:01;;;;;;;3.42;2.45;;;;;;;21.91;100.00;100396.16;4990405;28;20155;-75
2023/06/25 03:24:27;;;;;;;6.70;3.30;;;;;;;22.16;100.00;100410.13;4989584;28;20089;-75
2023/06/25 03:26:52;;;;;;;7.07;3.10;;;;;;;22.00;100.00;100389.47;4990277;28;20493;-75
2023/06/25 03:29:18;;;;;;;9.07;4.50;;;;;;;21.36;100.00;100289.19;4988792;28;20104;-76
2023/06/25 03:31:43;;;;;;;7.55;3.78;;;;;;;22.16;100.00;100408.31;4989894;28;20457;-76
2023/06/25 03:34:09;;;;;;;15.27;3.53;;;;;;;21.58;100.00;100301.56;4990162;28;20042;-75
2023/06/25 03:36:35;;;;;;;7.05;4.95;;;;;;;21.74;100.00;100320.41;4977282;28;20101;-75
2023/06/25 03:39:00;;;;;;;8.65;4.38;;;;;;;22.18;100.00;100387.72;4989944;28;20489;-75
2023/06/25 03:41:26;;;;;;;12.73;3.72;;;;;;;21.86;100.00;100333.16;4990094;28;20041;-75
2023/06/25 03:43:51;;;;;;;13.60;3.63;;;;;;;21.99;100.00;100376.22;4989532;28;20041;-74
2023/06/25 03:46:17;;;;;;;10.77;4.88;;;;;;;21.56;100.00;100300.78;4989908;28;20042;-75
2023/06/25 03:48:43;;;;;;;7.65;3.83;;;;;;;22.14;100.00;100416.41;4989254;28;20486;-75
2023/06/25 03:51:09;;;;;;;9.98;3.97;;;;;;;22.22;100.00;100421.44;4990020;28;20531;-74
2023/06/25 03:53:35;;;;;;;6.80;3.47;;;;;;;22.11;100.00;100375.59;4989803;28;20117;-75
2023/06/25 03:56:00;;;;;;;7.88;3.30;;;;;;;22.27;100.00;100407.84;4988901;28;20121;-75
2023/06/25 03:58:26;;;;;;;6.18;4.22;;;;;;;21.67;100.00;100301.13;4989350;28;20169;-75
2023/06/25 04:00:51;;;;;;;7.72;4.28;;;;;;;21.77;100.00;100313.09;4990121;28;20037;-74
2023/06/25 04:03:17;;;;;;;6.00;3.05;;;;;;;22.23;100.00;100384.88;4989307;28;20030;-75
2023/06/25 04:05:44;;;;;;;8.02;3.25;;;;;;;21.78;100.00;100295.28;4989596;28;20030;-75
2023/06/25 04:08:10;;;;;;;7.05;3.28;;;;;;;21.62;100.00;100273.78;4989194;28;20041;-75
2023/06/25 04:10:35;;;;;;;7.35;3.97;;;;;;;22.37;100.00;100402.91;4989644;28;20035;-73
2023/06/25 04:13:01;;;;;;;8.70;5.32;;;;;;;22.44;100.00;100402.53;4988926;28;20558;-75
2023/06/25 04:15:26;;;;;;;6.03;3.53;;;;;;;22.00;100.00;100317.31;4991293;28;20034;-75
2023/06/25 04:17:52;;;;;;;8.18;3.65;;;;;;;22.51;100.00;100398.59;4989303;28;20022;-72
2023/06/25 04:20:17;;;;;;;5.05;3.53;;;;;;;22.54;100.00;100406.47;4988772;28;20041;-74
2023/06/25 04:22:43;;;;;;;5.72;3.97;;;;;;;22.50;100.00;100404.00;4989377;28;20049;-76
2023/06/25 04:25:08;;;;;;;11.75;3.20;;;;;;;22.52;100.00;100405.69;4982253;28;20042;-75
2023/06/25 04:27:34;;;;;;;6.40;2.92;;;;;;;22.33;100.00;100375.44;4979077;28;20423;-77
2023/06/25 04:29:59;;;;;;;9.02;3.13;;;;;;;21.91;100.00;100299.97;4989029;28;20037;-74
2023/06/25 04:32:24;;;;;;;7.85;5.28;;;;;;;22.40;100.00;100368.84;4987696;28;20132;-75
2023/06/25 04:34:50;;;;;;;8.95;4.60;;;;;;;22.50;100.00;100377.28;4989200;28;20038;-76
2023/06/25 04:37:15;;;;;;;7.28;3.53;;;;;;;22.62;100.00;100403.44;4989090;28;20030;-74
2023/06/25 04:39:41;;;;;;;14.38;3.60;;;;;;;22.59;100.00;100382.16;4988709;28;20099;-74
2023/06/25 04:42:07;;;;;;;6.30;3.53;;;;;;;22.14;100.00;100305.97;4988896;28;20034;-74
2023/06/25 04:44:32;;;;;;;7.68;4.93;;;;;;;22.57;100.00;100372.47;4988934;28;20915;-74
2023/06/25 04:46:58;;;;;;;7.55;2.60;;;;;;;22.72;100.00;100385.09;4989367;28;20038;-73
2023/06/25 04:49:23;;;;;;;11.43;4.03;;;;;;;22.74;100.00;100380.53;4988961;28;20039;-75
2023/06/25 04:51:49;;;;;;;8.85;3.30;;;;;;;22.72;100.00;100375.25;4988862;28;20494;-73
2023/06/25 04:54:14;;;;;;;7.00;3.85;;;;;;;22.28;100.00;100295.47;4989068;28;20034;-73
2023/06/25 04:56:40;;;;;;;6.63;2.53;;;;;;;22.70;100.00;100390.50;4973073;28;20145;-73
2023/06/25 04:59:06;;;;;;;5.78;3.08;;;;;;;22.85;100.00;100398.69;4988633;28;20049;-74
2023/06/25 05:01:32;;;;;;;6.88;3.72;;;;;;;22.80;100.00;100371.31;4986945;28;20046;-74
2023/06/25 05:03:58;;;;;;;7.10;3.28;;;;;;;22.48;100.00;100369.34;4988734;28;20042;-76
2023/06/25 05:06:24;;;;;;;3.95;2.28;;;;;;;22.31;100.00;100383.56;4986940;28;20512;-75
2023/06/25 05:08:49;;;;;;;5.80;2.97;;;;;;;21.89;100.00;100274.22;4988456;28;20165;-75
2023/06/25 05:11:16;;;;;;;5.47;2.70;;;;;;;21.92;100.00;100272.28;4988059;28;20082;-75
2023/06/25 05:13:41;;;;;;;5.50;2.72;;;;;;;23.03;100.00;100387.06;4987085;28;20446;-75
2023/06/25 05:16:07;;;;;;;7.68;5.10;;;;;;;23.33;100.00;100375.69;4989526;28;20041;-75
2023/06/25 05:18:32;;;;;;;15.48;4.80;;;;;;;23.05;100.00;100317.41;4987996;28;20580;-73
2023/06/25 05:20:58;;;;;;;6.95;2.78;;;;;;;22.96;100.00;100294.66;4988396;28;20045;-75
2023/06/25 05:23:25;;;;;;;4.85;2.28;;;;;;;23.46;100.00;100375.88;4973080;28;20034;-74
2023/06/25 05:25:50;;;;;;;5.68;3.20;;;;;;;23.49;100.00;100373.94;4979368;28;20038;-74
2023/06/25 05:28:15;;;;;;;4.53;2.55;;;;;;;23.63;100.00;100380.34;4991109;28;20534;-74
2023/06/25 05:30:41;;;;;;;8.73;2.70;;;;;;;23.85;100.00;100374.69;4992047;28;20084;-74
2023/06/25 05:33:06;;;;;;;6.97;3.95;;;;;;;23.28;100.00;100257.28;4991941;28;20501;-74
2023/06/25 05:35:33;;;;;;;6.93;3.97;;;;;;;23.85;100.00;100367.50;4992073;28;20113;-74
2023/06/25 05:37:59;;;;;;;4.43;2.95;;;;;;;23.45;100.00;100317.94;4990662;28;20045;-75
2023/06/25 05:40:27;;;;;;;10.65;2.95;;;;;;;23.16;100.00;100272.19;4981081;28;20472;-74
2023/06/25 05:42:54;;;;;;;5.30;2.75;;;;;;;22.86;100.00;100277.38;5001939;28;20044;-74
2023/06/25 05:45:19;;;;;;;5.95;3.35;;;;;;;23.38;100.00;100350.41;4984228;28;20050;-75
2023/06/25 05:47:45;;;;;;;7.43;3.80;;;;;;;23.71;100.00;100370.91;4991260;28;20520;-74
2023/06/25 05:50:10;;;;;;;7.30;4.50;;;;;;;23.45;100.00;100379.53;4992060;28;20053;-73
2023/06/25 05:52:36;;;;;;;7.18;3.17;;;;;;;23.62;100.00;100376.78;4991674;28;20514;-74
2023/06/25 05:55:03;;;;;;;8.88;7.68;;;;;;;23.79;100.00;100366.06;4989269;28;20022;-76
2023/06/25 05:57:28;;;;;;;10.95;4.50;;;;;;;23.62;100.00;100365.22;4991562;28;20077;-74
2023/06/25 05:59:54;;;;;;;7.85;3.22;;;;;;;23.84;100.00;100362.25;4991551;28;20461;-74
2023/06/25 06:02:19;;;;;;;6.00;3.47;;;;;;;23.30;100.00;100274.13;4991594;28;20066;-74
2023/06/25 06:04:44;;;;;;;6.20;3.58;;;;;;;23.71;100.00;100324.50;4991548;28;20085;-73
2023/06/25 06:07:10;;;;;;;5.28;2.03;;;;;;;23.96;100.00;100367.78;4994193;28;20034;-74
2023/06/25 06:09:35;;;;;;;6.15;4.07;;;;;;;23.80;100.00;100370.44;4995005;28;20108;-74
2023/06/25 06:12:01;;;;;;;5.22;2.78;;;;;;;23.86;100.00;100333.53;4992222;28;20433;-75
2023/06/25 06:14:26;;;;;;;11.90;2.80;;;;;;;24.16;100.00;100352.34;4991397;28;20478;-75
2023/06/25 06:16:52;;;;;;;4.20;2.90;;;;;;;24.10;100.00;100312.50;4992998;28;20026;-74
2023/06/25 06:19:17;;;;;;;9.95;4.07;;;;;;;24.56;100.00;100348.28;4990716;28;20100;-74
2023/06/25 06:21:43;;;;;;;10.57;4.15;;;;;;;24.66;100.00;100379.94;4991331;28;20042;-75
2023/06/25 06:24:08;;;;;;;7.18;3.75;;;;;;;23.96;100.00;100232.91;4991285;28;20026;-75
2023/06/25 06:26:36;;;;;;;7.43;3.75;;;;;;;24.85;100.00;100377.88;4990404;28;20034;-73
2023/06/25 06:29:03;;;;;;;6.60;3.38;;;;;;;25.10;100.00;100382.63;4990409;28;20461;-72
2023/06/25 06:31:31;;;;;;;8.48;3.45;;;;;;;24.84;100.00;100373.44;4991399;28;20069;-73
2023/06/25 06:33:57;;;;;;;4.95;3.38;;;;;;;25.06;100.00;100355.06;4991072;28;20398;-74
2023/06/25 06:36:22;;;;;;;4.32;2.63;;;;;;;24.81;100.00;100298.47;4990541;28;20034;-75
2023/06/25 06:38:48;;;;;;;5.45;2.75;;;;;;;25.48;100.00;100393.69;4989758;28;20034;-74
2023/06/25 06:41:13;;;;;;;11.55;5.10;;;;;;;25.43;100.00;100385.06;4990535;28;20379;-74
2023/06/25 06:43:39;;;;;;;7.90;3.35;;;;;;;25.13;100.00;100317.97;4990799;28;20070;-74
2023/06/25 06:46:04;;;;;;;17.42;3.55;;;;;;;25.55;100.00;100371.84;4989183;28;20030;-73
2023/06/25 06:48:30;;;;;;;5.78;2.75;;;;;;;25.52;100.00;100342.44;4980521;28;20904;-73
2023/06/25 06:50:55;;;;;;;7.13;3.28;;;;;;;25.08;100.00;100269.06;4990349;28;20042;-75
2023/06/25 06:53:21;;;;;;;5.70;3.30;;;;;;;25.28;100.00;100300.06;4990214;28;20042;-75
2023/06/25 06:55:46;;;;;;;5.13;2.50;;;;;;;25.92;100.00;100380.25;4990045;28;20026;-76
2023/06/25 06:58:12;;;;;;;4.22;2.42;;;;;;;26.08;100.00;100386.34;4988243;28;20097;-74
2023/06/25 07:00:37;;;;;;;7.95;3.72;;;;;;;26.08;100.00;100380.97;4982956;28;20031;-73
2023/06/25 07:03:03;;;;;;;8.00;2.83;;;;;;;25.94;100.00;100330.78;4990383;28;20089;-76
2023/06/25 07:05:28;;;;;;;4.47;2.97;;;;;;;26.24;100.00;100372.75;4987987;28;20541;-72
2023/06/25 07:07:54;;;;;;;6.18;2.72;;;;;;;26.24;100.00;100389.75;4981569;28;20519;-73
2023/06/25 07:10:19;;;;;;;12.52;2.80;;;;;;;26.50;100.00;100374.59;4984794;28;20137;-74
2023/06/25 07:12:45;;;;;;;5.72;2.83;;;;;;;26.26;100.00;100331.34;4979183;28;20833;-72
2023/06/25 07:15:10;;;;;;;4.80;2.15;;;;;;;26.59;100.00;100362.38;4993736;28;20045;-74
2023/06/25 07:17:36;;;;;;;4.45;2.28;;;;;;;25.78;100.00;100287.91;4987032;28;20482;-68
2023/06/25 07:20:01;;;;;;;9.75;2.63;;;;;;;26.20;100.00;100382.88;4983512;28;20093;-71
2023/06/25 07:22:27;;;;;;;4.55;2.10;;;;;;;26.32;100.00;100379.38;4963060;28;20097;-69
2023/06/25 07:24:52;;;;;;;4.85;3.08;;;;;;;26.06;100.00;100346.13;4985016;28;20045;-70
2023/06/25 07:27:18;;;;;;;5.63;2.47;;;;;;;26.37;100.00;100378.22;4984468;28;20033;-70
2023/06/25 07:29:43;;;;;;;6.63;4.50;;;;;;;26.19;100.00;100358.75;4985297;28;20038;-71
2023/06/25 07:32:09;;;;;;;4.57;3.25;;;;;;;25.74;100.00;100277.44;4963565;28;20042;-71
2023/06/25 07:34:35;;;;;;;3.55;1.88;;;;;;;26.19;100.00;100370.38;4984574;28;20383;-70
2023/06/25 07:37:01;;;;;;;5.80;3.40;;;;;;;25.98;100.00;100329.63;4977641;28;20054;-69
2023/06/25 07:39:33;;;;;;;5.85;2.63;;;;;;;26.03;100.00;100367.81;4985808;28;20570;-69
2023/06/25 07:41:59;;;;;;;8.48;4.22;;;;;;;25.80;100.00;100350.50;4983395;28;21117;-69
2023/06/25 07:44:25;;;;;;;6.20;2.35;;;;;;;26.05;100.00;100379.34;4980469;28;20058;-71
2023/06/25 07:46:51;;;;;;;5.93;2.75;;;;;;;25.24;100.00;100260.94;4979844;28;20038;-71
2023/06/25 07:49:16;;;;;;;6.47;3.70;;;;;;;25.75;100.00;100254.97;4982894;28;20048;-70
2023/06/25 07:51:49;;;;;;;6.78;4.47;;;;;;;26.13;100.00;100360.03;4981589;28;20042;-69
2023/06/25 07:54:14;;;;;;;7.85;3.10;;;;;;;25.85;100.00;100286.53;4984863;28;20059;-69
2023/06/25 07:56:41;;;;;;;7.05;3.70;;;;;;;26.20;100.00;100345.22;4982075;28;20641;-69
2023/06/25 07:59:07;;;;;;;10.38;3.55;;;;;;;26.09;100.00;100329.78;4979469;28;20072;-69
2023/06/25 08:01:32;;;;;;;5.40;3.67;;;;;;;26.19;100.00;100339.94;4981966;28;20053;-70
2023/06/25 08:03:58;;;;;;;8.07;3.70;;;;;;;24.50;100.00;100050.84;4979770;28;20120;-71
2023/06/25 08:06:23;;;;;;;9.98;2.45;;;;;;;26.07;100.00;100334.41;4983827;28;20819;-72
2023/06/25 08:08:50;;;;;;;5.50;4.07;;;;;;;26.03;100.00;100313.19;4985304;28;20116;-70
2023/06/25 08:11:15;;;;;;;4.30;2.33;;;;;;;25.95;100.00;100242.94;4981336;28;20572;-70
2023/06/25 08:13:41;;;;;;;5.55;3.15;;;;;;;26.33;100.00;100270.78;4980315;28;20108;-68
2023/06/25 08:16:06;;;;;;;8.90;4.13;;;;;;;25.79;100.00;100235.00;4977225;28;20422;-68
2023/06/25 08:18:32;;;;;;;6.70;4.00;;;;;;;26.11;100.00;100292.91;4981029;28;20065;-68
2023/06/25 08:20:57;;;;;;;4.85;2.95;;;;;;;25.66;100.00;100265.38;4967220;28;20061;-76
2023/06/25 08:23:23;;;;;;;4.90;2.70;;;;;;;25.74;100.00;100221.84;4977511;28;20046;-81
2023/06/25 08:25:48;;;;;;;6.03;3.50;;;;;;;26.44;100.00;100304.19;4973112;28;20038;-81
2023/06/25 08:28:14;;;;;;;7.05;4.00;;;;;;;25.68;100.00;100260.75;4962482;28;20051;-82
2023/06/25 08:30:40;;;;;;;7.05;3.95;;;;;;;25.94;100.00;100321.84;4970721;28;20038;-76
2023/06/25 08:33:06;;;;;;;4.55;3.15;;;;;;;25.65;100.00;100244.81;4982076;28;20077;-78
2023/06/25 08:35:31;;;;;;;5.30;2.90;;;;;;;25.29;100.00;100215.84;4974957;28;20125;-76
2023/06/25 08:37:57;;;;;;;4.72;3.05;;;;;;;26.21;100.00;100289.59;4982460;28;20398;-77
2023/06/25 08:40:25;;;;;;;4.80;3.03;;;;;;;26.74;100.00;100323.63;4980187;28;20418;-76
2023/06/25 08:42:51;;;;;;;6.15;3.67;;;;;;;26.72;100.00;100289.72;5006981;28;20101;-76
2023/06/25 08:45:18;;;;;;;8.13;4.55;;;;;;;26.78;100.00;100197.72;4984562;28;20038;-76
2023/06/25 08:47:48;;;;;;;7.43;3.22;;;;;;;27.36;100.00;100287.00;4972542;28;20042;-76
2023/06/25 08:50:14;;;;;;;12.15;3.80;;;;;;;26.79;100.00;100252.47;4979878;28;20438;-78
2023/06/25 08:52:40;;;;;;;5.45;2.83;;;;;;;26.83;100.00;100210.88;4976178;28;20027;-77
2023/06/25 08:55:09;;;;;;;5.07;3.60;;;;;;;26.73;100.00;100213.34;4960497;28;20484;-78
2023/06/25 08:57:35;;;;;;;7.38;2.88;;;;;;;27.31;100.00;100275.72;4984698;28;20046;-80
2023/06/25 09:00:00;;;;;;;6.97;3.47;;;;;;;27.48;100.00;100287.94;4984169;28;20038;-78
2023/06/25 09:02:29;;;;;;;5.82;2.72;;;;;;;26.96;100.00;100265.59;4981911;28;20033;-74
2023/06/25 09:05:05;;;;;;;4.57;2.67;;;;;;;27.26;100.00;100292.22;4980828;28;20581;-77
2023/06/25 09:07:34;;;;;;;5.88;3.17;;;;;;;27.58;100.00;100306.06;4974285;28;20129;-77
2023/06/25 09:09:59;;;;;;;6.80;3.00;;;;;;;26.40;100.00;100212.03;4995590;28;20055;-77
2023/06/25 09:12:25;;;;;;;5.72;3.17;;;;;;;26.63;100.00;100182.69;4977447;28;20419;-77
2023/06/25 09:14:51;;;;;;;7.28;4.53;;;;;;;26.93;100.00;100298.13;4979099;28;20042;-78
2023/06/25 09:17:21;;;;;;;2.35;1.77;;;;;;;27.37;100.00;100291.44;4978043;28;20148;-79
2023/06/25 09:19:46;;;;;;;3.88;2.58;;;;;;;27.38;100.00;100285.06;4980986;28;20082;-76
2023/06/25 09:22:12;;;;;;;3.78;2.22;;;;;;;27.08;100.00;100236.91;4977924;28;20049;-77
2023/06/25 09:24:42;;;;;;;4.45;2.55;;;;;;;26.98;100.00;100274.41;4978230;28;20061;-78
2023/06/25 09:27:10;;;;;;;4.25;2.40;;;;;;;26.33;100.00;100197.28;4977353;28;20042;-79
2023/06/25 09:29:37;;;;;;;4.40;3.00;;;;;;;27.42;100.00;100286.56;4981157;28;20101;-79
2023/06/25 09:32:10;;;;;;;4.20;2.10;;;;;;;27.11;100.00;100193.59;4981511;28;20095;-76
2023/06/25 09:34:37;;;;;;;4.45;2.55;;;;;;;27.34;100.00;100197.31;4997418;28;20061;-78
2023/06/25 09:37:05;;;;;;;6.72;3.67;;;;;;;27.81;100.00;100286.44;4986752;28;20706;-77
2023/06/25 09:39:31;;;;;;;4.30;2.60;;;;;;;27.10;100.00;100276.25;4983435;28;20514;-79
2023/06/25 09:41:58;;;;;;;5.03;2.88;;;;;;;26.31;100.00;100272.69;4981756;28;20062;-77
2023/06/25 09:44:23;;;;;;;7.30;3.67;;;;;;;26.73;100.00;100270.75;4994943;28;20046;-77
2023/06/25 09:46:53;;;;;;;7.15;3.05;;;;;;;26.25;100.00;100168.22;5013742;28;20072;-78
2023/06/25 09:49:19;;;;;;;7.72;2.78;;;;;;;27.26;100.00;100262.56;4982789;28;20047;-76
2023/06/25 09:52:14;;;;;;;4.90;3.00;;;;;;;27.26;100.00;100283.28;4980502;28;20492;-78
2023/06/25 09:54:41;;;;;;;5.85;4.00;;;;;;;26.99;100.00;100240.25;4976756;28;20770;-80
2023/06/25 09:57:14;;;;;;;5.00;3.78;;;;;;;26.53;100.00;100263.19;4980148;28;20060;-77
2023/06/25 09:59:40;;;;;;;8.02;3.63;;;;;;;25.82;100.00;100181.00;4985993;28;20046;-78
2023/06/25 10:02:07;;;;;;;5.47;3.13;;;;;;;25.67;100.00;100183.75;4979676;28;20058;-85
2023/06/25 10:04:34;;;;;;;3.38;2.15;;;;;;;26.37;100.00;100273.28;4979477;28;20052;-75
2023/06/25 10:07:01;;;;;;;5.60;2.85;;;;;;;26.24;100.00;100241.81;4977621;28;20051;-73
2023/06/25 10:09:26;;;;;;;5.80;3.25;;;;;;;26.39;100.00;100260.59;4975207;28;20050;-75
2023/06/25 10:11:54;;;;;;;6.65;3.83;;;;;;;26.38;100.00;100267.78;4983996;28;20554;-73
2023/06/25 10:14:21;;;;;;;4.57;3.08;;;;;;;25.96;100.00;100148.69;4978341;28;20051;-73
2023/06/25 10:16:57;;;;;;;6.68;2.90;;;;;;;26.83;100.00;100271.00;4983377;28;20056;-74
2023/06/25 10:19:25;;;;;;;4.80;2.63;;;;;;;25.33;100.00;100091.09;4981116;28;20050;-76
2023/06/25 10:22:03;;;;;;;4.97;2.83;;;;;;;26.33;100.00;100192.75;4979681;28;20084;-74
2023/06/25 10:24:49;;;;;;;11.85;2.92;;;;;;;26.46;100.00;100248.44;4980450;28;20050;-73
2023/06/25 10:27:20;;;;;;;4.70;2.90;;;;;;;26.85;100.00;100265.47;4980944;28;20042;-74
2023/06/25 10:29:46;;;;;;;5.53;2.33;;;;;;;26.84;100.00;100243.09;4987324;28;20045;-74
2023/06/25 10:32:14;;;;;;;9.07;4.07;;;;;;;26.86;100.00;100203.44;4988328;28;20486;-74
2023/06/25 10:34:40;;;;;;;3.75;2.60;;;;;;;27.34;100.00;100237.75;4984403;28;21341;-76
2023/06/25 10:37:08;;;;;;;6.63;2.92;;;;;;;27.82;100.00;100253.13;4985448;28;20089;-74
2023/06/25 10:39:41;;;;;;;8.25;3.72;;;;;;;27.33;100.00;100152.50;4984813;28;20209;-74
2023/06/25 10:42:07;;;;;;;6.18;4.18;;;;;;;27.75;100.00;100180.78;4986541;28;20035;-74
2023/06/25 10:44:35;;;;;;;7.25;3.75;;;;;;;27.90;100.00;100226.47;4979117;28;20038;-74
2023/06/25 10:47:08;;;;;;;8.55;3.72;;;;;;;27.06;100.00;100148.13;4988303;28;20042;-75
2023/06/25 10:49:35;;;;;;;4.30;2.85;;;;;;;28.02;100.00;100228.22;4984252;28;20578;-74
2023/06/25 10:52:02;;;;;;;4.35;2.15;;;;;;;28.84;100.00;100198.47;4985934;28;20046;-74
2023/06/25 10:54:28;;;;;;;6.13;3.97;;;;;;;27.94;100.00;100201.00;4983363;28;20073;-76
2023/06/25 10:57:06;;;;;;;5.18;2.55;;;;;;;28.55;100.00;100223.25;4986370;28;20467;-75
2023/06/25 10:59:32;;;;;;;5.40;2.60;;;;;;;27.99;100.00;100142.16;4977221;28;20541;-75
2023/06/25 11:02:10;;;;;;;5.35;2.97;;;;;;;27.87;100.00;100126.91;4987883;28;20043;-75
2023/06/25 11:04:35;;;;;;;5.47;3.75;;;;;;;27.45;100.00;100154.28;4984203;28;20041;-75
2023/06/25 11:07:01;;;;;;;5.47;3.00;;;;;;;27.82;100.00;100110.22;4984409;28;20042;-74
2023/06/25 11:09:28;;;;;;;11.02;3.22;;;;;;;27.86;100.00;100120.66;4988886;28;20049;-75
2023/06/25 11:11:55;;;;;;;11.60;3.75;;;;;;;27.75;100.00;100129.53;4988925;28;20050;-75
2023/06/25 11:14:20;;;;;;;5.60;4.43;;;;;;;28.54;100.00;100185.56;4989387;28;20053;-74